Time;durP1;ratioP1;P1;durP2;ratioP2;P2;SDS_P1;SDS_P2;PMS_P1;PMS_P2;Temp;Humidity;BMP_temperature;BMP_pressure;BME280_temperature;BME280_humidity;BME280_pressure;Samples;Min_cycle;Max_cycle;Signal;HPM_P1;HPM_P2
2022/10/13 00:02:06;;;;;;;45.40;20.20;;;;;;;3.28;80.06;101151.95;103156;1285;24093;-66
2022/10/13 00:04:37;;;;;;;43.00;19.40;;;;;;;3.27;80.20;101151.40;103188;1306;22480;-65
2022/10/13 00:07:10;;;;;;;45.80;19.60;;;;;;;3.26;80.19;101147.88;103072;1285;25857;-66
2022/10/13 00:09:42;;;;;;;40.40;18.00;;;;;;;3.24;80.40;101146.39;103080;1306;24256;-65
2022/10/13 00:12:14;;;;;;;38.40;16.40;;;;;;;3.22;80.38;101148.38;103116;1274;25224;-65
2022/10/13 00:14:46;;;;;;;41.70;16.70;;;;;;;3.21;80.39;101147.21;103103;1285;22768;-66
2022/10/13 00:17:17;;;;;;;33.50;16.00;;;;;;;3.19;80.31;101142.42;103072;1283;22463;-66
2022/10/13 00:19:49;;;;;;;37.60;14.90;;;;;;;3.18;80.31;101144.55;103110;1282;22638;-65
2022/10/13 00:22:20;;;;;;;32.00;13.10;;;;;;;3.16;80.34;101141.50;103050;1285;23927;-65
2022/10/13 00:24:54;;;;;;;31.50;13.10;;;;;;;3.12;80.40;101137.98;103153;1285;22465;-65
2022/10/13 00:27:25;;;;;;;33.60;13.10;;;;;;;3.10;80.39;101136.88;103037;1289;22602;-65
2022/10/13 00:29:57;;;;;;;30.00;12.20;;;;;;;3.09;80.50;101136.51;103000;1275;25806;-66
2022/10/13 00:32:29;;;;;;;31.20;12.80;;;;;;;3.07;80.61;101133.29;103073;1280;22474;-65
2022/10/13 00:35:00;;;;;;;33.00;12.50;;;;;;;3.05;80.69;101131.34;103149;1281;22585;-65
2022/10/13 00:37:32;;;;;;;35.00;13.10;;;;;;;3.03;80.75;101133.40;103215;1280;25349;-66
2022/10/13 00:40:04;;;;;;;31.50;12.10;;;;;;;3.01;80.70;101132.88;102976;1300;23089;-66
2022/10/13 00:42:40;;;;;;;31.80;11.20;;;;;;;2.99;80.77;101129.34;103220;1281;22469;-66
2022/10/13 00:45:23;;;;;;;28.50;12.40;;;;;;;2.97;80.73;101127.61;103028;1285;25377;-65
2022/10/13 00:47:57;;;;;;;28.40;10.90;;;;;;;2.97;80.79;101124.79;103021;1274;26170;-65
2022/10/13 00:50:34;;;;;;;27.60;11.80;;;;;;;2.96;80.80;101125.20;103090;1281;22543;-65
2022/10/13 00:53:06;;;;;;;30.00;11.60;;;;;;;2.95;80.89;101129.36;103410;1281;22462;-66
2022/10/13 00:55:41;;;;;;;33.80;12.80;;;;;;;2.93;81.14;101129.70;103134;1285;27467;-66
2022/10/13 00:58:16;;;;;;;32.90;10.80;;;;;;;2.91;81.09;101127.35;103399;1277;22531;-66
2022/10/13 01:00:50;;;;;;;31.80;11.60;;;;;;;2.91;81.05;101126.88;103241;1280;22528;-64
2022/10/13 01:03:23;;;;;;;26.60;10.80;;;;;;;2.91;81.08;101121.05;103185;1306;22484;-64
2022/10/13 01:05:57;;;;;;;31.50;12.00;;;;;;;2.92;81.13;101120.80;103124;1306;24406;-65
2022/10/13 01:08:29;;;;;;;29.70;10.90;;;;;;;2.91;81.14;101118.77;103006;1285;22452;-65
2022/10/13 01:11:16;;;;;;;30.70;12.90;;;;;;;2.88;81.21;101119.48;103035;1306;26578;-65
2022/10/13 01:13:53;;;;;;;26.80;10.30;;;;;;;2.85;81.36;101120.61;103024;1295;22651;-65
2022/10/13 01:16:35;;;;;;;28.60;10.60;;;;;;;2.84;81.35;101118.20;103076;1282;25325;-65
2022/10/13 01:19:20;;;;;;;28.30;11.20;;;;;;;2.82;81.35;101115.13;102989;1281;22480;-65
2022/10/13 01:22:08;;;;;;;31.60;11.10;;;;;;;2.80;81.33;101115.54;103021;1306;22592;-65
2022/10/13 01:24:47;;;;;;;27.00;10.10;;;;;;;2.78;81.68;101114.45;103010;1306;22526;-65
2022/10/13 01:27:50;;;;;;;27.80;10.60;;;;;;;2.78;81.64;101116.02;103117;1306;25678;-65
2022/10/13 01:30:23;;;;;;;29.90;10.20;;;;;;;2.77;81.58;101114.38;102951;1288;22473;-65
2022/10/13 01:33:14;;;;;;;29.10;10.60;;;;;;;2.75;81.69;101110.29;103105;1312;22523;-65
2022/10/13 01:36:05;;;;;;;23.60;9.60;;;;;;;2.71;81.76;101106.14;102630;1288;22493;-65
2022/10/13 01:38:45;;;;;;;29.80;11.40;;;;;;;2.67;81.86;101103.81;102707;1312;22480;-65
2022/10/13 01:41:24;;;;;;;21.80;8.00;;;;;;;2.66;81.76;101105.16;102562;1312;22558;-64
2022/10/13 01:44:01;;;;;;;23.70;9.20;;;;;;;2.63;81.71;101100.77;102693;1312;24223;-65
2022/10/13 01:46:36;;;;;;;30.30;11.10;;;;;;;2.59;81.69;101094.17;102705;1289;25339;-65
2022/10/13 01:49:11;;;;;;;29.30;11.00;;;;;;;2.56;81.85;101091.05;102614;1288;22469;-65
2022/10/13 01:51:44;;;;;;;27.50;10.20;;;;;;;2.53;81.73;101089.88;102639;1287;22481;-65
2022/10/13 01:54:15;;;;;;;25.00;10.00;;;;;;;2.53;81.65;101085.63;102717;1288;22483;-65
2022/10/13 01:56:55;;;;;;;25.90;11.40;;;;;;;2.51;81.71;101084.94;102621;1293;22489;-66
2022/10/13 01:59:29;;;;;;;28.60;11.20;;;;;;;2.49;82.05;101086.53;102638;1288;25995;-65
2022/10/13 02:02:12;;;;;;;32.50;11.70;;;;;;;2.48;81.92;101079.30;102625;1312;25573;-66
2022/10/13 02:04:56;;;;;;;27.50;11.30;;;;;;;2.48;81.99;101075.27;102671;1291;22589;-65
2022/10/13 02:07:36;;;;;;;27.90;11.30;;;;;;;2.46;82.06;101072.85;102671;1280;25218;-65
2022/10/13 02:10:11;;;;;;;29.40;12.00;;;;;;;2.44;82.11;101072.55;102907;1281;22588;-65
2022/10/13 02:12:50;;;;;;;32.10;12.10;;;;;;;2.41;82.15;101072.10;103211;1304;24347;-66
2022/10/13 02:15:26;;;;;;;32.50;12.10;;;;;;;2.39;82.39;101070.05;102989;1281;24438;-66
2022/10/13 02:17:58;;;;;;;31.60;12.80;;;;;;;2.36;82.40;101071.80;103034;1282;25224;-65
2022/10/13 02:20:30;;;;;;;35.20;13.90;;;;;;;2.33;82.36;101069.46;103080;1306;22529;-65
2022/10/13 02:23:07;;;;;;;37.70;12.60;;;;;;;2.32;82.33;101073.56;103095;1306;25260;-64
2022/10/13 02:25:39;;;;;;;34.20;13.60;;;;;;;2.31;82.28;101068.86;103003;1297;24405;-65
2022/10/13 02:28:13;;;;;;;39.20;15.50;;;;;;;2.29;82.23;101067.20;102996;1284;22609;-65
2022/10/13 02:30:46;;;;;;;42.20;17.50;;;;;;;2.26;82.33;101067.77;103063;1285;22492;-64
2022/10/13 02:33:17;;;;;;;37.60;14.10;;;;;;;2.26;82.37;101069.11;103139;1282;22468;-65
2022/10/13 02:35:49;;;;;;;32.90;14.00;;;;;;;2.24;82.36;101064.16;103166;1282;23741;-65
2022/10/13 02:38:20;;;;;;;40.90;15.00;;;;;;;2.24;82.42;101062.83;103017;1281;22468;-65
2022/10/13 02:40:53;;;;;;;36.60;13.50;;;;;;;2.25;82.49;101062.42;103234;1306;25361;-65
2022/10/13 02:43:25;;;;;;;36.70;14.10;;;;;;;2.27;82.54;101067.06;103124;1285;22532;-66
2022/10/13 02:45:58;;;;;;;31.50;13.90;;;;;;;2.29;82.57;101066.64;103252;1281;22486;-65
2022/10/13 02:48:30;;;;;;;42.60;15.90;;;;;;;2.31;82.78;101065.38;103096;1305;25273;-65
2022/10/13 02:51:02;;;;;;;35.10;14.20;;;;;;;2.33;82.75;101061.05;102961;1298;23083;-65
2022/10/13 02:53:33;;;;;;;35.90;15.10;;;;;;;2.34;82.85;101058.20;102993;1280;22692;-65
2022/10/13 02:56:06;;;;;;;45.10;15.70;;;;;;;2.35;82.99;101057.09;103010;1298;22484;-65
2022/10/13 02:58:38;;;;;;;39.40;16.90;;;;;;;2.35;83.05;101052.20;103092;1280;26626;-64
2022/10/13 03:01:12;;;;;;;38.10;17.20;;;;;;;2.36;83.06;101053.86;103089;1306;25168;-65
2022/10/13 03:03:44;;;;;;;42.20;16.10;;;;;;;2.37;83.14;101051.88;103101;1281;22460;-65
2022/10/13 03:06:15;;;;;;;39.40;17.50;;;;;;;2.35;83.31;101052.61;103025;1306;22516;-65
2022/10/13 03:08:47;;;;;;;43.80;17.80;;;;;;;2.34;83.47;101052.54;102989;1283;25573;-64
2022/10/13 03:11:19;;;;;;;45.10;17.10;;;;;;;2.33;83.52;101052.46;103147;1282;22458;-64
2022/10/13 03:13:50;;;;;;;41.80;17.70;;;;;;;2.32;83.51;101051.91;103123;1280;22484;-64
2022/10/13 03:16:22;;;;;;;38.80;17.70;;;;;;;2.32;83.49;101053.65;103085;1283;22603;-64
2022/10/13 03:18:53;;;;;;;38.50;16.60;;;;;;;2.31;83.43;101053.35;103085;1282;22608;-64
2022/10/13 03:21:25;;;;;;;40.50;18.10;;;;;;;2.29;83.40;101055.16;103118;1281;22473;-64
2022/10/13 03:23:56;;;;;;;38.90;17.80;;;;;;;2.27;83.56;101055.48;103003;1281;25953;-65
2022/10/13 03:26:28;;;;;;;39.70;16.60;;;;;;;2.27;83.56;101052.66;103002;1306;22464;-64
2022/10/13 03:29:00;;;;;;;39.80;16.50;;;;;;;2.26;83.44;101053.84;103126;1288;24188;-65
2022/10/13 03:31:31;;;;;;;39.50;15.50;;;;;;;2.25;83.43;101055.12;103235;1287;25517;-65
2022/10/13 03:34:03;;;;;;;42.60;17.60;;;;;;;2.21;83.48;101057.33;103035;1283;25355;-65
2022/10/13 03:36:35;;;;;;;41.50;16.10;;;;;;;2.19;83.54;101056.79;103614;1278;25470;-65
2022/10/13 03:39:06;;;;;;;40.30;15.80;;;;;;;2.17;83.48;101057.52;103085;1306;24406;-64
2022/10/13 03:41:39;;;;;;;43.10;17.00;;;;;;;2.15;83.41;101059.02;103058;1275;25267;-65
2022/10/13 03:44:13;;;;;;;43.50;16.50;;;;;;;2.12;83.42;101059.36;103165;1277;22928;-65
2022/10/13 03:46:44;;;;;;;41.10;16.10;;;;;;;2.08;83.40;101054.10;103086;1297;23676;-64
2022/10/13 03:49:16;;;;;;;37.30;14.70;;;;;;;2.05;83.50;101052.23;102935;1281;23772;-65
2022/10/13 03:51:47;;;;;;;36.90;15.70;;;;;;;2.02;83.26;101050.67;103316;1282;22578;-65
2022/10/13 03:54:19;;;;;;;32.60;14.10;;;;;;;1.98;83.28;101042.66;103031;1282;25312;-65
2022/10/13 03:56:50;;;;;;;33.00;14.10;;;;;;;1.96;83.37;101038.98;103110;1280;24263;-64
2022/10/13 03:59:21;;;;;;;34.10;15.00;;;;;;;1.95;83.43;101046.70;103063;1282;25147;-65
2022/10/13 04:01:53;;;;;;;36.00;15.90;;;;;;;1.93;83.47;101042.61;103281;1306;25269;-64
2022/10/13 04:04:25;;;;;;;32.40;15.20;;;;;;;1.92;83.41;101044.60;103081;1278;22539;-64
2022/10/13 04:06:57;;;;;;;39.40;16.20;;;;;;;1.91;83.44;101041.77;103215;1280;24336;-64
2022/10/13 04:09:28;;;;;;;35.60;14.60;;;;;;;1.90;83.49;101044.44;103044;1282;22497;-64
2022/10/13 04:12:00;;;;;;;37.40;14.60;;;;;;;1.89;83.60;101042.25;103165;1285;24337;-64
2022/10/13 04:14:32;;;;;;;39.20;16.10;;;;;;;1.87;83.65;101044.46;102963;1275;22461;-65
2022/10/13 04:17:03;;;;;;;36.00;17.20;;;;;;;1.86;83.68;101040.46;103057;1306;26098;-64
2022/10/13 04:19:35;;;;;;;40.50;17.00;;;;;;;1.86;83.65;101041.17;103110;1281;24360;-64
2022/10/13 04:22:06;;;;;;;44.70;16.60;;;;;;;1.85;83.64;101036.29;102899;1296;24034;-64
2022/10/13 04:24:38;;;;;;;38.10;17.20;;;;;;;1.84;83.73;101036.22;102912;1306;22475;-64
2022/10/13 04:27:09;;;;;;;34.40;15.90;;;;;;;1.84;83.75;101037.39;103200;1282;22524;-64
2022/10/13 04:29:41;;;;;;;36.90;17.20;;;;;;;1.84;83.79;101037.79;103138;1297;22815;-64
2022/10/13 04:32:13;;;;;;;36.40;16.20;;;;;;;1.85;83.81;101035.66;103372;1306;22467;-64
2022/10/13 04:34:45;;;;;;;34.80;15.70;;;;;;;1.86;83.73;101033.15;103350;1299;22541;-64
2022/10/13 04:37:19;;;;;;;36.70;16.30;;;;;;;1.86;83.81;101028.27;103091;1288;22566;-65
2022/10/13 04:39:50;;;;;;;45.70;16.60;;;;;;;1.85;83.79;101032.05;103137;1307;24322;-65
2022/10/13 04:42:22;;;;;;;40.20;18.20;;;;;;;1.85;83.82;101038.02;102965;1306;25466;-64
2022/10/13 04:44:53;;;;;;;43.50;17.10;;;;;;;1.82;83.92;101037.86;106838;1297;22146;-65
2022/10/13 04:47:25;;;;;;;38.30;17.40;;;;;;;1.81;83.97;101032.52;106647;1286;22491;-65
2022/10/13 04:49:56;;;;;;;36.90;16.50;;;;;;;1.81;83.99;101027.66;106914;1284;22187;-65
2022/10/13 04:52:28;;;;;;;35.60;16.80;;;;;;;1.80;83.96;101032.05;105176;1281;23075;-65
2022/10/13 04:54:59;;;;;;;36.50;17.30;;;;;;;1.81;84.01;101031.58;106812;1288;22791;-65
2022/10/13 04:57:31;;;;;;;41.10;18.40;;;;;;;1.82;84.01;101027.33;104400;1298;22515;-64
2022/10/13 05:00:06;;;;;;;42.30;18.10;;;;;;;1.84;84.11;101028.75;103342;1282;22494;-65
2022/10/13 05:02:38;;;;;;;45.60;17.50;;;;;;;1.85;84.13;101027.79;103277;1304;24442;-65
2022/10/13 05:05:11;;;;;;;41.10;18.00;;;;;;;1.85;84.16;101026.14;103037;1281;22478;-65
2022/10/13 05:07:43;;;;;;;44.40;17.90;;;;;;;1.85;84.21;101026.69;103254;1288;22493;-64
2022/10/13 05:10:15;;;;;;;44.20;18.10;;;;;;;1.87;84.24;101029.44;103128;1295;24268;-64
2022/10/13 05:12:47;;;;;;;39.80;18.80;;;;;;;1.87;84.34;101029.27;103162;1289;25371;-64
2022/10/13 05:15:19;;;;;;;43.40;18.90;;;;;;;1.88;84.35;101030.77;103056;1282;22484;-64
2022/10/13 05:17:50;;;;;;;43.50;19.40;;;;;;;1.89;84.41;101028.55;103148;1306;22541;-64
2022/10/13 05:20:22;;;;;;;53.90;23.10;;;;;;;1.90;84.52;101025.88;103239;1288;22468;-63
2022/10/13 05:22:53;;;;;;;59.70;33.00;;;;;;;1.91;84.67;101023.52;103088;1281;22472;-63
2022/10/13 05:25:25;;;;;;;73.10;43.50;;;;;;;1.92;84.85;101021.46;102997;1282;22462;-64
2022/10/13 05:27:56;;;;;;;67.40;38.60;;;;;;;1.94;84.92;101018.22;103111;1285;22568;-64
2022/10/13 05:30:28;;;;;;;60.00;33.40;;;;;;;1.98;85.24;101016.94;103020;1307;22594;-64
2022/10/13 05:32:59;;;;;;;58.30;30.30;;;;;;;2.01;85.43;101025.42;103505;1304;22503;-64
2022/10/13 05:35:31;;;;;;;53.40;27.80;;;;;;;2.02;85.42;101020.00;103203;1306;22461;-64
2022/10/13 05:38:02;;;;;;;63.10;30.20;;;;;;;2.04;85.50;101018.73;103510;1306;22467;-64
2022/10/13 05:40:34;;;;;;;63.50;30.50;;;;;;;2.06;85.61;101017.30;103402;1294;25394;-64
2022/10/13 05:43:06;;;;;;;50.10;24.60;;;;;;;2.10;85.80;101020.89;103430;1310;22942;-64
2022/10/13 05:45:39;;;;;;;54.90;25.10;;;;;;;2.13;85.97;101019.69;103279;1283;24307;-64
2022/10/13 05:48:10;;;;;;;58.20;27.80;;;;;;;2.17;86.20;101016.27;103343;1298;22605;-64
2022/10/13 05:50:41;;;;;;;69.50;28.90;;;;;;;2.20;86.51;101016.33;103362;1288;25404;-64
2022/10/13 05:53:13;;;;;;;78.90;33.70;;;;;;;2.24;86.59;101014.42;103347;1287;22461;-64
2022/10/13 05:55:45;;;;;;;95.90;41.40;;;;;;;2.29;86.91;101019.82;103241;1310;22470;-64
2022/10/13 05:58:17;;;;;;;97.20;46.40;;;;;;;2.34;87.16;101016.31;103360;1290;24313;-64
2022/10/13 06:00:49;;;;;;;107.40;42.60;;;;;;;2.38;87.22;101015.43;103221;1288;25575;-65
2022/10/13 06:03:24;;;;;;;107.50;48.40;;;;;;;2.43;87.51;101013.50;103187;1280;24371;-64
2022/10/13 06:05:56;;;;;;;102.60;45.40;;;;;;;2.47;87.51;101017.09;103299;1281;22453;-64
2022/10/13 06:08:29;;;;;;;110.60;49.10;;;;;;;2.52;87.70;101014.22;103269;1288;22835;-64
2022/10/13 06:11:01;;;;;;;134.70;54.80;;;;;;;2.57;87.77;101008.52;103311;1307;22467;-64
2022/10/13 06:13:32;;;;;;;143.40;58.00;;;;;;;2.62;87.84;101006.42;103293;1310;26779;-64
2022/10/13 06:16:04;;;;;;;128.70;56.00;;;;;;;2.68;88.16;101004.09;103145;1310;22468;-63
2022/10/13 06:18:35;;;;;;;143.40;60.90;;;;;;;2.75;88.41;101008.59;103287;1281;25225;-64
2022/10/13 06:21:07;;;;;;;131.40;54.10;;;;;;;2.80;88.65;101007.05;103250;1307;25404;-63
2022/10/13 06:23:39;;;;;;;121.90;53.70;;;;;;;2.87;88.60;101004.06;103330;1307;22662;-64
2022/10/13 06:26:11;;;;;;;92.80;47.30;;;;;;;2.94;88.73;101005.66;103337;1288;24216;-64
2022/10/13 06:28:44;;;;;;;83.80;41.80;;;;;;;3.00;89.07;101006.78;103294;1310;22487;-64
2022/10/13 06:31:15;;;;;;;76.50;38.90;;;;;;;3.08;89.17;101011.04;103240;1274;25446;-64
2022/10/13 06:33:47;;;;;;;80.10;41.40;;;;;;;3.15;89.34;101009.15;103235;1288;25357;-64
2022/10/13 06:36:19;;;;;;;78.60;38.10;;;;;;;3.22;89.38;101010.48;103292;1306;25378;-64
2022/10/13 06:38:51;;;;;;;76.30;37.00;;;;;;;3.29;89.72;101005.13;103249;1310;25267;-64
2022/10/13 06:41:23;;;;;;;81.50;37.40;;;;;;;3.38;89.97;101004.80;103307;1288;23867;-64
2022/10/13 06:43:55;;;;;;;70.70;38.10;;;;;;;3.46;90.13;100997.13;103248;1296;24140;-64
2022/10/13 06:46:27;;;;;;;79.10;38.80;;;;;;;3.54;90.51;100994.59;103516;1289;22584;-63
2022/10/13 06:48:59;;;;;;;82.20;38.80;;;;;;;3.62;90.80;100993.94;103227;1283;24336;-63
2022/10/13 06:51:33;;;;;;;80.60;41.20;;;;;;;3.71;90.89;100992.95;102419;1283;835078;-63
2022/10/13 06:54:05;;;;;;;75.40;39.10;;;;;;;3.80;91.05;100984.39;103209;1286;22482;-64
2022/10/13 06:56:39;;;;;;;75.70;40.50;;;;;;;3.89;91.00;100984.67;103519;1278;22468;-64
2022/10/13 06:59:11;;;;;;;76.40;41.10;;;;;;;3.97;90.98;100985.02;103256;1295;22556;-64
2022/10/13 07:01:43;;;;;;;74.50;40.50;;;;;;;4.06;91.28;100986.41;103340;1307;23922;-64
2022/10/13 07:04:15;;;;;;;80.00;40.40;;;;;;;4.14;91.43;100981.70;103307;1288;22473;-64
2022/10/13 07:06:47;;;;;;;83.50;40.00;;;;;;;4.24;91.72;100979.27;103440;1306;24250;-64
2022/10/13 07:09:19;;;;;;;80.80;39.20;;;;;;;4.32;91.43;100979.68;103396;1282;22673;-64
2022/10/13 07:11:51;;;;;;;79.10;41.10;;;;;;;4.41;91.67;100981.20;103246;1284;22618;-64
2022/10/13 07:14:23;;;;;;;72.00;38.40;;;;;;;4.51;92.02;100984.66;103368;1283;22810;-65
2022/10/13 07:16:54;;;;;;;73.60;39.40;;;;;;;4.60;91.91;100978.77;103378;1306;26097;-65
2022/10/13 07:19:25;;;;;;;71.30;39.70;;;;;;;4.68;91.63;100978.30;103529;1306;25457;-64
2022/10/13 07:22:00;;;;;;;76.70;39.80;;;;;;;4.75;91.62;100975.98;103204;1306;22483;-64
2022/10/13 07:24:31;;;;;;;79.60;40.90;;;;;;;4.84;91.95;100973.06;103058;1310;22593;-66
2022/10/13 07:27:03;;;;;;;76.40;40.30;;;;;;;4.92;92.13;100978.13;103178;1306;25338;-65
2022/10/13 07:29:35;;;;;;;79.30;40.30;;;;;;;5.01;92.41;100978.75;103233;1294;24201;-65
2022/10/13 07:32:07;;;;;;;75.50;40.20;;;;;;;5.12;92.68;100978.16;103265;1292;23208;-66
2022/10/13 07:34:38;;;;;;;81.60;42.90;;;;;;;5.21;92.72;100973.15;103271;1294;24288;-66
2022/10/13 07:37:10;;;;;;;77.00;40.10;;;;;;;5.29;92.56;100972.04;103201;1282;22486;-65
2022/10/13 07:39:43;;;;;;;78.70;38.60;;;;;;;5.40;92.92;100971.36;103219;1305;22464;-64
2022/10/13 07:42:14;;;;;;;71.80;38.40;;;;;;;5.50;92.85;100969.23;103132;1306;25338;-65
2022/10/13 07:44:45;;;;;;;79.70;39.30;;;;;;;5.60;92.65;100963.66;103319;1298;25375;-64
2022/10/13 07:47:17;;;;;;;73.30;37.40;;;;;;;5.68;92.55;100967.77;103316;1295;24449;-65
2022/10/13 07:49:49;;;;;;;66.30;34.00;;;;;;;5.76;92.63;100967.81;103340;1306;22464;-64
2022/10/13 07:52:21;;;;;;;65.10;35.10;;;;;;;5.85;92.39;100965.59;103257;1306;22594;-64
2022/10/13 07:54:53;;;;;;;65.10;34.50;;;;;;;5.93;92.37;100958.29;103326;1281;25278;-65
2022/10/13 07:57:27;;;;;;;66.20;34.80;;;;;;;6.03;92.68;100956.81;103182;1285;25393;-65
2022/10/13 07:59:59;;;;;;;60.70;31.20;;;;;;;6.11;92.54;100956.30;103301;1306;22492;-65
2022/10/13 08:02:31;;;;;;;65.10;32.90;;;;;;;6.22;92.71;100957.54;103549;1307;25126;-64
2022/10/13 08:05:04;;;;;;;68.10;33.80;;;;;;;6.35;92.65;100955.42;103405;1306;22516;-65
2022/10/13 08:07:36;;;;;;;57.60;30.00;;;;;;;6.43;92.47;100950.61;103354;1296;22457;-65
2022/10/13 08:10:10;;;;;;;56.00;29.60;;;;;;;6.52;92.44;100950.23;103255;1288;25430;-64
2022/10/13 08:12:41;;;;;;;58.80;28.90;;;;;;;6.65;92.82;100948.48;103358;1285;22595;-65
2022/10/13 08:15:15;;;;;;;61.30;31.40;;;;;;;6.77;92.41;100945.55;103199;1305;25227;-65
2022/10/13 08:17:47;;;;;;;52.80;28.60;;;;;;;6.86;92.22;100941.73;103453;1280;22472;-65
2022/10/13 08:20:18;;;;;;;50.00;26.20;;;;;;;6.98;92.04;100942.37;103479;1306;22524;-65
2022/10/13 08:22:50;;;;;;;51.00;26.60;;;;;;;7.07;91.86;100934.99;103518;1304;25531;-65
2022/10/13 08:25:21;;;;;;;52.10;25.80;;;;;;;7.19;91.96;100932.88;103262;1281;22477;-68
2022/10/13 08:27:53;;;;;;;48.80;25.10;;;;;;;7.33;91.88;100937.91;103385;1306;24430;-65
2022/10/13 08:30:24;;;;;;;51.00;24.90;;;;;;;7.44;91.62;100942.27;103299;1306;22478;-65
2022/10/13 08:32:56;;;;;;;54.30;24.90;;;;;;;7.55;91.32;100936.16;103451;1306;25538;-65
2022/10/13 08:35:27;;;;;;;48.30;24.50;;;;;;;7.64;91.19;100930.97;103359;1286;22701;-65
2022/10/13 08:37:59;;;;;;;49.40;24.90;;;;;;;7.77;91.48;100927.38;103472;1306;25517;-66
2022/10/13 08:40:30;;;;;;;49.80;24.80;;;;;;;7.87;90.87;100926.45;103460;1306;24253;-65
2022/10/13 08:43:05;;;;;;;44.40;21.70;;;;;;;7.94;90.47;100931.16;103503;1306;24287;-65
2022/10/13 08:45:37;;;;;;;48.00;23.10;;;;;;;8.07;90.60;100932.73;103226;1306;22438;-66
2022/10/13 08:48:15;;;;;;;46.90;23.00;;;;;;;8.19;90.33;100930.69;103393;1278;25329;-67
2022/10/13 08:50:51;;;;;;;45.30;21.40;;;;;;;8.27;90.11;100921.08;103180;1306;22520;-66
2022/10/13 08:53:29;;;;;;;41.80;20.30;;;;;;;8.38;90.14;100920.10;103641;1306;22603;-65
2022/10/13 08:56:05;;;;;;;40.20;20.00;;;;;;;8.51;89.97;100919.66;103345;1306;24256;-66
2022/10/13 08:58:39;;;;;;;43.40;19.00;;;;;;;8.65;89.91;100915.89;103308;1306;24401;-66
2022/10/13 09:01:16;;;;;;;43.90;18.40;;;;;;;8.73;89.23;100912.91;103165;1306;22455;-66
2022/10/13 09:03:51;;;;;;;36.40;17.70;;;;;;;8.79;89.10;100916.02;103280;1283;24260;-66
2022/10/13 09:06:27;;;;;;;37.90;17.30;;;;;;;8.89;89.15;100917.06;103345;1305;25416;-66
2022/10/13 09:09:00;;;;;;;43.30;17.20;;;;;;;8.99;89.04;100916.63;103433;1305;23867;-69
2022/10/13 09:11:34;;;;;;;33.20;16.30;;;;;;;9.06;88.76;100915.35;103366;1306;25356;-66
2022/10/13 09:14:09;;;;;;;36.10;18.20;;;;;;;9.16;88.94;100910.66;103547;1306;24271;-66
2022/10/13 09:16:43;;;;;;;37.50;16.80;;;;;;;9.27;88.57;100906.60;103411;1306;25226;-65
2022/10/13 09:19:22;;;;;;;37.80;16.80;;;;;;;9.37;88.31;100908.77;103462;1304;25394;-66
2022/10/13 09:21:58;;;;;;;38.70;18.00;;;;;;;9.45;88.12;100904.27;103447;1282;22480;-66
2022/10/13 09:24:29;;;;;;;37.80;16.90;;;;;;;9.54;87.88;100901.62;103358;1306;25559;-66
2022/10/13 09:27:12;;;;;;;38.80;15.60;;;;;;;9.60;87.73;100899.46;103498;1306;22555;-66
2022/10/13 09:29:44;;;;;;;36.90;15.90;;;;;;;9.69;87.77;100897.91;103351;1281;22556;-67
2022/10/13 09:32:22;;;;;;;32.40;14.60;;;;;;;9.75;87.38;100897.83;103479;1303;22472;-66
2022/10/13 09:34:54;;;;;;;30.70;14.80;;;;;;;9.85;87.25;100896.58;103372;1282;26013;-66
2022/10/13 09:37:27;;;;;;;32.40;14.30;;;;;;;9.95;87.22;100895.29;103282;1304;25559;-66
2022/10/13 09:40:14;;;;;;;35.50;15.20;;;;;;;10.04;87.13;100890.48;103260;1301;22597;-66
2022/10/13 09:42:53;;;;;;;34.60;14.30;;;;;;;10.12;86.82;100889.20;103162;1306;22484;-66
2022/10/13 09:45:29;;;;;;;39.60;13.80;;;;;;;10.22;86.77;100887.22;103435;1305;22610;-66
2022/10/13 09:48:04;;;;;;;30.50;13.80;;;;;;;10.35;86.56;100883.56;103243;1282;22733;-67
2022/10/13 09:50:38;;;;;;;37.20;14.00;;;;;;;10.46;86.11;100885.77;103276;1299;23687;-67
2022/10/13 09:53:23;;;;;;;32.70;12.30;;;;;;;10.55;86.24;100885.27;103300;1282;24327;-66
2022/10/13 09:56:10;;;;;;;30.30;10.90;;;;;;;10.69;86.10;100883.09;103510;1282;22479;-66
2022/10/13 09:58:45;;;;;;;29.60;11.80;;;;;;;10.77;85.59;100881.45;103477;1306;25561;-67
2022/10/13 10:01:25;;;;;;;28.40;13.20;;;;;;;10.83;85.38;100877.27;103348;1298;22611;-67
2022/10/13 10:03:59;;;;;;;30.60;12.00;;;;;;;10.91;85.20;100876.14;103446;1288;22485;-67
2022/10/13 10:06:31;;;;;;;22.70;10.00;;;;;;;11.00;85.20;100874.05;103277;1281;25931;-67
2022/10/13 10:09:18;;;;;;;24.40;10.20;;;;;;;11.06;84.90;100871.53;103443;1281;22845;-66
2022/10/13 10:11:53;;;;;;;26.80;10.20;;;;;;;11.11;84.53;100875.31;103474;1282;22522;-67
2022/10/13 10:14:28;;;;;;;24.80;10.10;;;;;;;11.19;84.74;100871.01;103463;1306;25386;-66
2022/10/13 10:17:05;;;;;;;28.60;10.20;;;;;;;11.35;84.63;100870.92;103523;1305;26264;-67
2022/10/13 10:19:47;;;;;;;26.80;11.00;;;;;;;11.48;84.22;100865.72;103455;1306;22494;-67
2022/10/13 10:22:31;;;;;;;23.60;10.20;;;;;;;11.59;83.93;100864.12;103413;1278;25536;-67
2022/10/13 10:25:12;;;;;;;28.80;10.50;;;;;;;11.67;83.66;100861.13;103263;1305;23305;-67
2022/10/13 10:27:51;;;;;;;26.90;8.80;;;;;;;11.75;83.35;100853.64;103356;1297;22609;-67
2022/10/13 10:30:23;;;;;;;22.40;9.10;;;;;;;11.83;83.15;100847.99;103429;1306;22682;-67
2022/10/13 10:33:00;;;;;;;22.60;9.30;;;;;;;11.93;82.98;100846.85;103563;1306;22604;-67
2022/10/13 10:35:43;;;;;;;24.70;9.50;;;;;;;12.03;82.86;100838.77;103366;1281;24234;-67
2022/10/13 10:38:29;;;;;;;27.80;9.80;;;;;;;12.12;82.66;100831.52;103459;1306;22621;-67
2022/10/13 10:41:12;;;;;;;21.10;8.30;;;;;;;12.22;82.57;100831.91;103534;1306;24256;-67
2022/10/13 10:43:55;;;;;;;21.00;7.80;;;;;;;12.31;82.31;100823.56;103434;1306;22670;-67
2022/10/13 10:46:32;;;;;;;31.60;9.40;;;;;;;12.40;81.89;100823.86;103756;1304;24385;-68
2022/10/13 10:49:12;;;;;;;24.20;8.40;;;;;;;12.55;81.78;100815.88;103538;1304;22937;-67
2022/10/13 10:51:44;;;;;;;26.40;9.40;;;;;;;12.65;81.07;100813.27;103482;1306;22549;-67
2022/10/13 10:54:30;;;;;;;28.90;9.10;;;;;;;12.72;81.09;100806.99;103495;1281;22592;-67
2022/10/13 10:57:09;;;;;;;25.80;9.20;;;;;;;12.78;81.00;100800.58;103467;1303;24375;-67
2022/10/13 10:59:51;;;;;;;23.50;8.20;;;;;;;12.88;80.82;100797.91;103359;1306;22473;-67
2022/10/13 11:02:41;;;;;;;20.30;7.00;;;;;;;12.99;80.32;100793.60;103465;1303;22597;-67
2022/10/13 11:05:12;;;;;;;18.90;6.90;;;;;;;13.12;80.07;100791.49;103203;1284;22688;-67
2022/10/13 11:08:03;;;;;;;22.30;6.90;;;;;;;13.25;80.10;100794.00;103265;1274;22788;-67
2022/10/13 11:10:33;;;;;;;;;;;;;;;13.40;79.82;100790.69;103433;1282;22435;-67
2022/10/13 11:13:27;;;;;;;22.50;7.90;;;;;;;13.50;79.67;100784.42;103601;1282;22472;-67
2022/10/13 11:16:19;;;;;;;21.20;8.00;;;;;;;13.59;79.06;100779.47;103423;1283;25554;-68
2022/10/13 11:19:28;;;;;;;19.50;6.90;;;;;;;13.66;78.75;100772.95;103229;1306;25273;-67
2022/10/13 11:22:25;;;;;;;21.20;7.60;;;;;;;13.73;78.20;100779.55;103488;1297;22624;-67
2022/10/13 11:25:05;;;;;;;17.40;6.10;;;;;;;13.76;78.34;100771.20;103520;1280;23206;-67
2022/10/13 11:27:48;;;;;;;17.80;5.50;;;;;;;13.78;78.06;100766.61;103366;1281;24314;-68
2022/10/13 11:30:48;;;;;;;24.50;8.10;;;;;;;13.82;77.71;100759.83;103415;1283;23186;-68
2022/10/13 11:33:49;;;;;;;;;;;;;;;13.86;77.25;100753.44;102800;1290;22466;-68
2022/10/13 11:36:55;;;;;;;22.20;7.00;;;;;;;13.91;77.36;100750.45;102717;1291;22492;-67
2022/10/13 11:39:58;;;;;;;23.00;6.40;;;;;;;14.00;76.87;100745.83;102923;1289;22546;-67
2022/10/13 11:42:51;;;;;;;20.80;7.70;;;;;;;14.09;76.76;100744.32;102843;1286;22554;-67
2022/10/13 11:45:37;;;;;;;16.90;6.00;;;;;;;14.14;76.55;100739.57;103032;1291;26507;-67